Terminal Aerodrome Forecast
Issued by NWS Sterling, VA

Home | Current Version | Previous Version | Text Only | Print | Product List | Glossary On
Versions: 1 2 3 4 5 6 7 8 9 10 11 12 13 14 15 16 17 18 19 20 21 22 23 24
000
FTUS41 KLWX 020900 AAA
TAFBWI
TAF AMD
KBWI 020901Z 0209/0312 26006KT P6SM FEW120 SCT200
     FM021800 23009KT P6SM BKN050 BKN150
     FM022200 24010KT P6SM VCTS BKN050CB
     FM030100 26006KT P6SM SCT070 SCT120
     FM030600 30007KT P6SM SCT200=

USA.gov is the U.S. government's official web portal to all federal, state and local government web resources and services.